Time;durP1;ratioP1;P1;durP2;ratioP2;P2;SDS_P1;SDS_P2;PMS_P1;PMS_P2;Temp;Humidity;BMP_temperature;BMP_pressure;BME280_temperature;BME280_humidity;BME280_pressure;Samples;Min_cycle;Max_cycle;Signal;HPM_P1;HPM_P2
2021/06/17 00:02:16;;;;;;;0.20;0.20;;;;;;;14.02;70.31;100099.91;6129271;23;20266;-80
2021/06/17 00:04:42;;;;;;;0.20;0.20;;;;;;;13.98;70.60;100098.53;6126482;23;20025;-84
2021/06/17 00:07:08;;;;;;;0.20;0.20;;;;;;;13.96;70.92;100101.38;6130005;23;20029;-84
2021/06/17 00:09:34;;;;;;;0.40;0.40;;;;;;;13.93;70.21;100100.84;6083471;23;20085;-83
2021/06/17 00:12:01;;;;;;;0.20;0.20;;;;;;;13.97;70.59;100108.53;6134968;23;20017;-84
2021/06/17 00:14:31;;;;;;;0.20;0.20;;;;;;;13.98;70.57;100110.25;6111451;23;20113;-82
2021/06/17 00:16:59;;;;;;;0.20;0.20;;;;;;;13.97;70.11;100115.84;6136069;23;20018;-82
2021/06/17 00:19:26;;;;;;;0.20;0.20;;;;;;;13.94;70.37;100116.16;6134787;23;20121;-82
2021/06/17 00:21:53;;;;;;;0.20;0.20;;;;;;;13.93;71.66;100109.88;6130333;23;20026;-82
2021/06/17 00:24:19;;;;;;;0.10;0.10;;;;;;;13.91;71.24;100119.19;6107984;23;20022;-81
2021/06/17 00:26:45;;;;;;;0.20;0.20;;;;;;;13.86;70.92;100116.13;6107970;23;20018;-81
2021/06/17 00:29:12;;;;;;;0.20;0.20;;;;;;;13.87;70.67;100117.81;6132622;23;20080;-83
2021/06/17 00:31:39;;;;;;;0.20;0.20;;;;;;;13.83;70.79;100117.28;6132627;23;20018;-82
2021/06/17 00:34:09;;;;;;;0.20;0.20;;;;;;;13.75;70.93;100111.81;6155857;23;20037;-83
2021/06/17 00:36:42;;;;;;;0.10;0.10;;;;;;;13.79;70.85;100120.50;6132105;23;20029;-81
2021/06/17 00:39:12;;;;;;;0.20;0.20;;;;;;;13.74;70.96;100129.97;6109804;23;20022;-82
2021/06/17 00:41:39;;;;;;;0.20;0.20;;;;;;;13.66;70.77;100127.19;6109261;23;20084;-84
2021/06/17 00:44:06;;;;;;;0.20;0.20;;;;;;;13.69;70.88;100132.31;6108300;23;20040;-82
2021/06/17 00:46:32;;;;;;;0.20;0.20;;;;;;;13.66;70.87;100137.22;6126628;23;20064;-82
2021/06/17 00:48:58;;;;;;;0.20;0.20;;;;;;;13.59;71.94;100142.44;6100927;23;20029;-81
2021/06/17 00:51:24;;;;;;;0.20;0.20;;;;;;;13.50;72.39;100148.81;6128540;23;20017;-81
2021/06/17 00:53:50;;;;;;;0.20;0.20;;;;;;;13.47;72.01;100149.13;6127284;23;20022;-81
2021/06/17 00:56:17;;;;;;;0.38;0.20;;;;;;;13.47;72.07;100151.84;6101609;23;20116;-81
2021/06/17 00:58:43;;;;;;;0.20;0.20;;;;;;;13.45;72.62;100151.13;6125784;23;20026;-82
2021/06/17 01:01:09;;;;;;;0.20;0.20;;;;;;;13.46;72.36;100152.88;6125176;23;20024;-82
2021/06/17 01:03:35;;;;;;;0.20;0.20;;;;;;;13.47;72.74;100165.44;6129381;23;20073;-84
2021/06/17 01:06:01;;;;;;;0.15;0.15;;;;;;;13.50;73.04;100165.13;6131578;23;20045;-82
2021/06/17 01:08:49;;;;;;;0.20;0.20;;;;;;;13.52;72.92;100173.94;6129470;23;20097;-82
2021/06/17 01:11:42;;;;;;;0.20;0.20;;;;;;;13.45;73.00;100184.59;6154392;23;20432;-82
2021/06/17 01:14:15;;;;;;;0.20;0.20;;;;;;;13.43;72.76;100180.34;6126408;23;20336;-81
2021/06/17 01:17:03;;;;;;;0.20;0.20;;;;;;;13.39;73.02;100181.66;6125348;23;20037;-80
2021/06/17 01:19:34;;;;;;;0.20;0.20;;;;;;;13.40;72.39;100186.06;6127229;23;20101;-82
2021/06/17 01:22:29;;;;;;;0.20;0.20;;;;;;;13.41;70.90;100182.34;6124148;23;20360;-80
2021/06/17 01:25:10;;;;;;;0.10;0.10;;;;;;;13.40;72.34;100183.38;6125961;23;20028;-81
2021/06/17 01:27:55;;;;;;;0.20;0.20;;;;;;;13.42;71.87;100182.22;6100937;23;20104;-82
2021/06/17 01:30:22;;;;;;;0.20;0.20;;;;;;;13.42;72.44;100181.31;6127391;23;20104;-81
2021/06/17 01:32:53;;;;;;;0.20;0.20;;;;;;;13.45;72.79;100183.72;6124000;23;20101;-82
2021/06/17 01:35:20;;;;;;;0.20;0.20;;;;;;;13.46;72.85;100174.59;6149687;23;20041;-82
2021/06/17 01:37:48;;;;;;;0.20;0.20;;;;;;;13.36;73.43;100184.69;6099252;23;20017;-83
2021/06/17 01:40:15;;;;;;;0.20;0.20;;;;;;;13.33;74.28;100185.00;6100028;23;20013;-82
2021/06/17 01:42:43;;;;;;;0.20;0.20;;;;;;;13.25;75.33;100188.50;6124767;23;20026;-83
2021/06/17 01:45:10;;;;;;;0.20;0.20;;;;;;;13.25;75.25;100194.78;6124160;23;20045;-82
2021/06/17 01:47:37;;;;;;;0.10;0.10;;;;;;;13.24;75.45;100193.06;6124147;23;20049;-83
2021/06/17 01:50:03;;;;;;;0.10;0.10;;;;;;;13.29;75.09;100194.47;6123888;23;20473;-80
2021/06/17 01:52:32;;;;;;;0.20;0.20;;;;;;;13.33;74.49;100195.84;6122861;23;20018;-81
2021/06/17 01:54:59;;;;;;;0.10;0.10;;;;;;;13.42;72.42;100198.50;6096992;23;20531;-83
2021/06/17 01:57:26;;;;;;;0.20;0.20;;;;;;;13.51;73.22;100194.84;6098344;23;20018;-84
2021/06/17 01:59:53;;;;;;;0.20;0.20;;;;;;;13.60;73.69;100206.63;6122035;23;20024;-82
2021/06/17 02:02:19;;;;;;;0.22;0.22;;;;;;;13.62;72.50;100212.75;6121889;23;20341;-82
2021/06/17 02:04:48;;;;;;;0.20;0.20;;;;;;;13.64;71.69;100205.31;6122805;23;20173;-81
2021/06/17 02:07:16;;;;;;;0.20;0.20;;;;;;;13.70;72.29;100207.38;6123018;23;20025;-82
2021/06/17 02:09:43;;;;;;;0.20;0.20;;;;;;;13.78;72.02;100192.16;6124448;23;20028;-82
2021/06/17 02:12:09;;;;;;;0.20;0.20;;;;;;;13.81;73.13;100205.41;6123030;23;20108;-84
2021/06/17 02:14:35;;;;;;;0.40;0.30;;;;;;;13.90;72.70;100205.34;6146460;23;20017;-82
2021/06/17 02:17:02;;;;;;;0.20;0.20;;;;;;;13.98;72.52;100207.25;6121253;23;20121;-80
2021/06/17 02:19:32;;;;;;;0.20;0.20;;;;;;;14.07;71.91;100209.00;6073034;23;20026;-81
2021/06/17 02:22:00;;;;;;;0.45;0.30;;;;;;;14.15;72.67;100209.06;6096569;23;20025;-81
2021/06/17 02:24:27;;;;;;;0.20;0.20;;;;;;;14.23;73.10;100217.28;6121033;23;20361;-80
2021/06/17 02:26:58;;;;;;;0.80;0.70;;;;;;;14.30;72.10;100225.66;6125298;23;20022;-82
2021/06/17 02:29:24;;;;;;;0.43;0.30;;;;;;;14.36;71.90;100221.41;6125860;23;20026;-81
2021/06/17 02:31:51;;;;;;;0.20;0.20;;;;;;;14.45;71.75;100212.28;6097357;23;20018;-82
2021/06/17 02:34:17;;;;;;;0.20;0.20;;;;;;;14.56;70.75;100222.06;6075191;23;20018;-81
2021/06/17 02:36:45;;;;;;;0.20;0.20;;;;;;;14.69;71.64;100233.34;6124755;23;20021;-83
2021/06/17 02:39:13;;;;;;;0.20;0.20;;;;;;;14.77;71.12;100229.78;6123649;23;20030;-83
2021/06/17 02:41:44;;;;;;;0.20;0.20;;;;;;;14.89;71.09;100239.38;6122083;23;20060;-82
2021/06/17 02:44:11;;;;;;;0.20;0.20;;;;;;;14.97;71.00;100236.69;6148298;23;20073;-81
2021/06/17 02:46:37;;;;;;;0.20;0.20;;;;;;;15.09;69.27;100239.94;6122713;23;20018;-85
2021/06/17 02:49:07;;;;;;;0.20;0.20;;;;;;;15.18;68.69;100239.81;6147547;23;20060;-81
2021/06/17 02:51:34;;;;;;;0.20;0.20;;;;;;;15.25;68.31;100233.69;6122460;23;20024;-82
2021/06/17 02:54:00;;;;;;;0.20;0.20;;;;;;;15.33;67.32;100236.44;6123244;23;20037;-82
2021/06/17 02:56:34;;;;;;;0.20;0.20;;;;;;;15.51;66.32;100234.41;6126017;23;20018;-82
2021/06/17 02:59:07;;;;;;;0.20;0.20;;;;;;;15.74;65.71;100244.69;6125409;23;20032;-82
2021/06/17 03:01:46;;;;;;;0.20;0.20;;;;;;;15.94;64.54;100240.56;6126939;23;20581;-83
2021/06/17 03:04:19;;;;;;;0.20;0.20;;;;;;;16.22;65.65;100248.41;6101681;23;20411;-82
2021/06/17 03:06:49;;;;;;;0.20;0.20;;;;;;;16.39;64.58;100241.88;6131825;23;20018;-80
2021/06/17 03:09:20;;;;;;;0.20;0.20;;;;;;;16.53;63.11;100235.72;6102265;23;20057;-82
2021/06/17 03:11:48;;;;;;;0.20;0.20;;;;;;;16.68;61.86;100237.72;6125558;23;20018;-81
2021/06/17 03:14:22;;;;;;;0.20;0.20;;;;;;;16.88;61.52;100244.47;6148137;23;20444;-85
2021/06/17 03:16:51;;;;;;;0.30;0.30;;;;;;;17.06;62.28;100244.22;6126895;23;20026;-82
2021/06/17 03:19:21;;;;;;;0.20;0.20;;;;;;;17.23;59.40;100245.00;6123667;23;20092;-81
2021/06/17 03:21:51;;;;;;;0.20;0.20;;;;;;;17.42;58.93;100252.72;6120334;23;20021;-80
2021/06/17 03:24:22;;;;;;;0.22;0.22;;;;;;;17.68;58.65;100249.63;6121465;23;20021;-80
2021/06/17 03:26:49;;;;;;;0.20;0.20;;;;;;;17.82;56.97;100248.00;6123894;23;20043;-82
2021/06/17 03:29:17;;;;;;;0.30;0.30;;;;;;;17.89;57.00;100251.72;6123155;23;20025;-82
2021/06/17 03:31:43;;;;;;;0.20;0.20;;;;;;;18.13;55.18;100266.19;6127166;23;20041;-83
2021/06/17 03:34:09;;;;;;;0.20;0.20;;;;;;;18.39;54.62;100260.28;6100478;23;20045;-81
2021/06/17 03:36:38;;;;;;;0.20;0.20;;;;;;;18.61;53.83;100266.72;6124789;23;20033;-82
2021/06/17 03:39:05;;;;;;;0.20;0.20;;;;;;;18.95;52.82;100261.56;6127544;23;20030;-83
2021/06/17 03:41:31;;;;;;;0.20;0.20;;;;;;;19.25;52.52;100272.47;6125330;23;20024;-82
2021/06/17 03:43:57;;;;;;;0.20;0.20;;;;;;;19.32;50.60;100267.94;6099041;23;20026;-83
2021/06/17 03:46:24;;;;;;;0.20;0.20;;;;;;;19.48;51.36;100273.16;6126239;23;20070;-83
2021/06/17 03:48:52;;;;;;;0.20;0.20;;;;;;;19.58;49.74;100267.38;6126546;23;20029;-83
2021/06/17 03:51:18;;;;;;;0.30;0.30;;;;;;;19.77;49.65;100274.13;6151398;23;20021;-84
2021/06/17 03:53:45;;;;;;;0.30;0.30;;;;;;;20.04;48.96;100282.59;6074135;23;20026;-82
2021/06/17 03:56:14;;;;;;;0.30;0.30;;;;;;;20.34;47.90;100284.16;6123553;23;20022;-82
2021/06/17 03:58:44;;;;;;;0.30;0.30;;;;;;;20.68;46.28;100274.28;6100458;23;20030;-82
2021/06/17 04:01:11;;;;;;;0.30;0.30;;;;;;;20.81;45.83;100273.53;6105974;23;20076;-83
2021/06/17 04:03:38;;;;;;;0.30;0.30;;;;;;;20.88;45.74;100275.25;6125496;23;20073;-83
2021/06/17 04:06:06;;;;;;;0.30;0.30;;;;;;;21.11;45.84;100279.59;6100409;23;20045;-85
2021/06/17 04:08:37;;;;;;;0.30;0.30;;;;;;;21.21;45.67;100285.56;6080200;23;20025;-84
2021/06/17 04:11:06;;;;;;;0.30;0.30;;;;;;;21.43;45.61;100295.41;6127107;23;20028;-84
2021/06/17 04:13:35;;;;;;;0.30;0.30;;;;;;;21.52;45.00;100292.47;6135000;23;20120;-84
2021/06/17 04:16:03;;;;;;;0.30;0.30;;;;;;;21.82;45.44;100291.06;6113554;23;20038;-86
2021/06/17 04:18:31;;;;;;;0.30;0.30;;;;;;;21.88;44.86;100298.47;6135153;23;20105;-83
2021/06/17 04:21:00;;;;;;;0.30;0.30;;;;;;;22.08;43.61;100298.50;6130043;23;20021;-84
2021/06/17 04:23:28;;;;;;;0.30;0.30;;;;;;;22.44;42.86;100290.91;6135119;23;20026;-85
2021/06/17 04:25:56;;;;;;;0.35;0.35;;;;;;;22.78;43.14;100298.06;6155010;23;20069;-81
2021/06/17 04:28:23;;;;;;;0.30;0.30;;;;;;;22.97;42.51;100296.38;6079979;23;20080;-83
2021/06/17 04:30:51;;;;;;;0.30;0.30;;;;;;;23.22;42.23;100300.09;6079856;23;20108;-84
2021/06/17 04:33:20;;;;;;;0.40;0.40;;;;;;;23.19;41.97;100306.06;6104550;23;20073;-85
2021/06/17 04:35:48;;;;;;;0.40;0.40;;;;;;;23.49;41.03;100308.25;6131013;23;20156;-83
2021/06/17 04:38:17;;;;;;;0.40;0.40;;;;;;;23.87;39.89;100304.69;6103543;23;20032;-84
2021/06/17 04:40:45;;;;;;;0.40;0.40;;;;;;;24.08;39.83;100309.84;6129264;23;20297;-83
2021/06/17 04:43:13;;;;;;;0.40;0.40;;;;;;;24.40;39.13;100318.13;6080070;23;20025;-85
2021/06/17 04:45:42;;;;;;;0.40;0.40;;;;;;;24.35;39.10;100320.69;6110744;23;20022;-84
2021/06/17 04:48:09;;;;;;;0.40;0.40;;;;;;;24.62;38.46;100316.66;6156908;23;20069;-82
2021/06/17 04:50:36;;;;;;;0.47;0.47;;;;;;;24.75;39.17;100321.19;6137286;23;20018;-85
2021/06/17 04:53:08;;;;;;;0.40;0.40;;;;;;;24.85;39.12;100316.00;6137148;23;20037;-84
2021/06/17 04:55:56;;;;;;;0.40;0.40;;;;;;;24.97;37.94;100313.31;6131301;23;20033;-86
2021/06/17 04:58:24;;;;;;;0.43;0.43;;;;;;;25.13;38.02;100332.13;6082337;23;20029;-85
2021/06/17 05:00:52;;;;;;;0.50;0.50;;;;;;;25.64;37.03;100322.56;6107491;23;20018;-84
2021/06/17 05:03:18;;;;;;;0.40;0.40;;;;;;;25.83;34.82;100322.53;6136215;23;20026;-85
2021/06/17 05:05:46;;;;;;;0.50;0.50;;;;;;;25.96;34.28;100322.31;6131999;23;20038;-84
2021/06/17 05:10:54;;;;;;;0.40;0.40;;;;;;;26.48;33.03;100325.38;6200730;23;20021;-86
2021/06/17 05:13:25;;;;;;;0.50;0.50;;;;;;;26.73;32.53;100336.25;6124928;23;20061;-86
2021/06/17 05:15:58;;;;;;;0.50;0.50;;;;;;;26.52;31.97;100325.75;6170655;23;20058;-86
2021/06/17 05:18:28;;;;;;;0.50;0.50;;;;;;;26.86;32.44;100337.94;6144883;23;20097;-84
2021/06/17 05:20:57;;;;;;;0.50;0.50;;;;;;;26.92;31.76;100336.97;6162589;23;20021;-84
2021/06/17 05:23:24;;;;;;;0.50;0.50;;;;;;;27.28;32.23;100324.78;6163470;23;20049;-85
2021/06/17 05:25:54;;;;;;;0.50;0.50;;;;;;;27.30;31.69;100332.84;6109786;23;20032;-84
2021/06/17 05:28:22;;;;;;;0.50;0.50;;;;;;;27.67;31.95;100335.28;6159356;23;20347;-84
2021/06/17 05:30:50;;;;;;;0.50;0.50;;;;;;;27.83;31.61;100332.59;6164616;23;20049;-84
2021/06/17 05:33:17;;;;;;;0.60;0.60;;;;;;;27.70;30.82;100334.78;6169251;23;20024;-87
2021/06/17 05:35:46;;;;;;;0.60;0.60;;;;;;;27.16;30.81;100344.22;6116971;23;20028;-85
2021/06/17 05:38:16;;;;;;;0.60;0.60;;;;;;;27.95;30.36;100346.44;6139929;23;20032;-84
2021/06/17 05:40:43;;;;;;;0.60;0.60;;;;;;;28.38;29.97;100345.03;6166988;23;20024;-86
2021/06/17 05:43:09;;;;;;;0.60;0.60;;;;;;;28.54;28.30;100338.63;6193890;23;20021;-84
2021/06/17 05:45:35;;;;;;;0.70;0.70;;;;;;;28.96;28.53;100338.16;6161454;23;20100;-82
2021/06/17 05:48:01;;;;;;;0.60;0.60;;;;;;;28.94;27.69;100350.66;6130487;23;20025;-79
2021/06/17 05:50:27;;;;;;;0.60;0.60;;;;;;;29.31;26.92;100353.72;6156484;23;20053;-81
2021/06/17 05:52:53;;;;;;;0.70;0.70;;;;;;;29.24;27.70;100353.06;6153109;23;20022;-81
2021/06/17 05:55:19;;;;;;;0.60;0.60;;;;;;;29.33;27.10;100347.91;6182554;23;20017;-85
2021/06/17 05:57:45;;;;;;;0.60;0.60;;;;;;;29.53;28.07;100353.72;6127696;23;20028;-80
2021/06/17 06:00:15;;;;;;;0.60;0.60;;;;;;;29.73;27.41;100361.53;6149906;23;20058;-82
2021/06/17 06:02:42;;;;;;;0.60;0.60;;;;;;;29.54;26.98;100352.63;6153670;23;20076;-82
2021/06/17 06:05:08;;;;;;;0.60;0.60;;;;;;;29.76;27.13;100355.41;6105340;23;20080;-82
2021/06/17 06:07:35;;;;;;;0.60;0.60;;;;;;;30.17;26.26;100361.50;6133651;23;20269;-86
2021/06/17 06:10:03;;;;;;;0.60;0.60;;;;;;;30.33;26.49;100354.94;6131215;23;20022;-82
2021/06/17 06:12:30;;;;;;;0.70;0.70;;;;;;;30.39;26.18;100359.47;6157716;23;20136;-84
2021/06/17 06:14:56;;;;;;;0.70;0.70;;;;;;;30.33;26.08;100365.28;6128646;23;20077;-84
2021/06/17 06:17:22;;;;;;;0.70;0.70;;;;;;;30.45;25.36;100368.72;6154348;23;20072;-83
2021/06/17 06:19:49;;;;;;;0.70;0.70;;;;;;;30.67;25.25;100371.41;6160306;23;20021;-83
2021/06/17 06:22:15;;;;;;;0.70;0.70;;;;;;;31.01;25.30;100371.13;6158397;23;20028;-85
2021/06/17 06:24:42;;;;;;;0.70;0.70;;;;;;;30.73;25.54;100373.16;6183915;23;20044;-84
2021/06/17 06:27:09;;;;;;;0.70;0.70;;;;;;;30.98;25.47;100378.97;6159128;23;20420;-86
2021/06/17 06:29:39;;;;;;;0.70;0.70;;;;;;;31.64;25.84;100386.06;6131026;23;20060;-84
2021/06/17 06:32:08;;;;;;;0.70;0.70;;;;;;;31.93;23.98;100384.53;6159309;23;20310;-85
2021/06/17 06:34:34;;;;;;;0.70;0.70;;;;;;;32.06;23.76;100385.13;6134375;23;20017;-84
2021/06/17 06:37:00;;;;;;;0.80;0.80;;;;;;;31.95;23.93;100387.03;6155138;23;20079;-84
2021/06/17 06:39:27;;;;;;;0.93;0.93;;;;;;;31.80;25.07;100385.00;6107228;23;20026;-83
2021/06/17 06:41:53;;;;;;;0.80;0.80;;;;;;;32.05;23.85;100389.03;6134090;23;20082;-82
2021/06/17 06:44:22;;;;;;;0.70;0.70;;;;;;;32.52;23.70;100379.63;6161238;23;20056;-83
2021/06/17 06:46:54;;;;;;;0.70;0.70;;;;;;;32.69;23.26;100383.00;6117109;23;20052;-85
2021/06/17 06:49:20;;;;;;;0.90;0.90;;;;;;;32.77;23.48;100393.63;6118969;23;20017;-84
2021/06/17 06:51:47;;;;;;;0.80;0.80;;;;;;;33.01;22.47;100399.53;6096285;23;20400;-84
2021/06/17 06:54:18;;;;;;;0.82;0.82;;;;;;;33.32;22.37;100397.50;6137552;23;20466;-82
2021/06/17 06:56:46;;;;;;;0.80;0.80;;;;;;;33.35;21.97;100405.34;6107462;23;20048;-83
2021/06/17 06:59:12;;;;;;;0.80;0.80;;;;;;;33.48;22.08;100397.50;6127398;23;20069;-83
2021/06/17 07:01:38;;;;;;;0.80;0.80;;;;;;;33.60;21.62;100398.00;6158830;23;20028;-82
2021/06/17 07:04:05;;;;;;;0.80;0.80;;;;;;;34.02;22.35;100402.34;6159133;23;20124;-83
2021/06/17 07:06:34;;;;;;;0.77;0.77;;;;;;;33.80;21.84;100413.94;6136283;23;20020;-83
2021/06/17 07:09:00;;;;;;;0.90;0.90;;;;;;;34.20;22.28;100415.72;6157330;23;20027;-83
2021/06/17 07:11:26;;;;;;;0.90;0.90;;;;;;;33.59;21.15;100415.97;6135102;23;20018;-83
2021/06/17 07:13:52;;;;;;;0.90;0.90;;;;;;;33.99;21.27;100414.16;6135809;23;20052;-85
2021/06/17 07:16:19;;;;;;;0.90;0.90;;;;;;;34.41;21.77;100427.66;6161611;23;20041;-84
2021/06/17 07:18:45;;;;;;;1.00;1.00;;;;;;;34.09;22.01;100428.13;6163141;23;20026;-83
2021/06/17 07:21:13;;;;;;;1.00;1.00;;;;;;;34.24;21.74;100416.81;6129938;23;20399;-83
2021/06/17 07:23:40;;;;;;;1.00;1.00;;;;;;;34.31;21.81;100422.09;6157765;23;20024;-84
2021/06/17 07:26:06;;;;;;;1.00;1.00;;;;;;;34.71;22.00;100421.00;6138361;23;20770;-83
2021/06/17 07:28:34;;;;;;;0.90;0.90;;;;;;;35.26;21.31;100427.28;6164558;23;20033;-83
2021/06/17 07:31:00;;;;;;;1.00;1.00;;;;;;;35.47;20.41;100433.53;6110295;23;20413;-84
2021/06/17 07:33:28;;;;;;;1.00;1.00;;;;;;;35.24;20.45;100417.44;6057884;23;20074;-83
2021/06/17 07:35:54;;;;;;;0.90;0.90;;;;;;;35.50;20.56;100432.09;6135610;23;20041;-83
2021/06/17 07:38:22;;;;;;;0.90;0.90;;;;;;;35.44;19.93;100436.09;6190637;22;20088;-84
2021/06/17 07:40:54;;;;;;;1.00;1.00;;;;;;;35.11;20.32;100424.63;6161432;23;20025;-84
2021/06/17 07:43:28;;;;;;;1.10;1.10;;;;;;;35.48;19.88;100439.97;6160039;23;20031;-83
2021/06/17 07:46:10;;;;;;;1.17;1.17;;;;;;;35.66;19.96;100430.81;6122267;23;20021;-83
2021/06/17 07:48:40;;;;;;;1.10;1.10;;;;;;;35.78;20.02;100432.34;6161214;23;20420;-82
2021/06/17 07:51:09;;;;;;;1.10;1.10;;;;;;;35.64;20.09;100430.25;6138170;23;20017;-84
2021/06/17 07:53:36;;;;;;;1.00;1.00;;;;;;;36.34;20.16;100429.63;6166725;23;20364;-83
2021/06/17 07:56:04;;;;;;;1.13;1.13;;;;;;;36.41;19.71;100424.44;6141023;23;20339;-83
2021/06/17 07:58:31;;;;;;;1.10;1.10;;;;;;;36.58;19.83;100429.59;6139889;23;20063;-84
2021/06/17 08:00:57;;;;;;;1.00;1.00;;;;;;;36.27;19.26;100451.69;6139700;23;20096;-85
2021/06/17 08:03:24;;;;;;;1.10;1.10;;;;;;;36.71;19.42;100433.59;6117987;23;20056;-86
2021/06/17 08:05:51;;;;;;;1.00;1.00;;;;;;;36.78;19.92;100430.38;6112777;23;20021;-84
2021/06/17 08:08:18;;;;;;;1.08;1.08;;;;;;;36.70;19.03;100441.22;6109451;23;20040;-83
2021/06/17 08:10:44;;;;;;;1.15;1.15;;;;;;;36.60;19.33;100444.22;6138805;23;20060;-84
2021/06/17 08:13:11;;;;;;;1.00;1.00;;;;;;;36.46;19.44;100460.19;6135957;23;20033;-83
2021/06/17 08:15:37;;;;;;;1.17;1.17;;;;;;;36.31;19.62;100451.91;6137771;23;20388;-85
2021/06/17 08:18:05;;;;;;;1.10;1.10;;;;;;;36.42;19.12;100456.25;6116373;23;20069;-83
2021/06/17 08:21:36;;;;;;;1.10;1.10;;;;;;;37.45;18.58;100453.50;6133902;23;20049;-85
2021/06/17 08:24:17;;;;;;;1.30;1.30;;;;;;;36.89;18.98;100455.25;6161080;23;20025;-83
2021/06/17 08:26:53;;;;;;;1.13;1.13;;;;;;;36.75;19.65;100456.34;6111799;23;20017;-84
2021/06/17 08:29:19;;;;;;;1.20;1.20;;;;;;;36.97;18.82;100461.38;6130971;23;20056;-83
2021/06/17 08:31:45;;;;;;;1.10;1.10;;;;;;;37.30;18.76;100450.91;6159656;23;20021;-82
2021/06/17 08:34:14;;;;;;;1.20;1.20;;;;;;;36.80;18.86;100459.13;6139978;23;20028;-83
2021/06/17 08:36:42;;;;;;;1.20;1.20;;;;;;;37.55;18.29;100458.94;6160041;23;20037;-85
2021/06/17 08:39:09;;;;;;;1.10;1.10;;;;;;;37.89;18.08;100463.38;6133715;23;20025;-82
2021/06/17 08:41:36;;;;;;;1.10;1.10;;;;;;;37.75;18.74;100466.16;6160395;23;20013;-84
2021/06/17 08:44:04;;;;;;;1.20;1.20;;;;;;;37.77;18.09;100465.84;6140808;23;20021;-83
2021/06/17 08:46:32;;;;;;;1.10;1.10;;;;;;;36.96;19.55;100452.09;6167160;23;20025;-84
2021/06/17 08:48:58;;;;;;;1.20;1.20;;;;;;;36.80;18.26;100448.66;6161262;23;20033;-86
2021/06/17 08:51:26;;;;;;;1.10;1.10;;;;;;;37.45;17.61;100459.16;6140224;23;20017;-85
2021/06/17 08:54:03;;;;;;;1.20;1.20;;;;;;;37.58;18.29;100452.66;6141131;23;20073;-83
2021/06/17 08:56:29;;;;;;;1.10;1.10;;;;;;;37.89;18.55;100452.09;6159387;23;20025;-83
2021/06/17 08:59:03;;;;;;;1.10;1.10;;;;;;;37.41;18.70;100441.97;6137785;23;20064;-83
2021/06/17 09:01:30;;;;;;;1.20;1.20;;;;;;;37.23;19.40;100442.88;6134460;23;20029;-83
2021/06/17 09:03:58;;;;;;;1.30;1.30;;;;;;;37.01;17.69;100443.56;6163173;23;20061;-84
2021/06/17 09:06:25;;;;;;;1.10;1.10;;;;;;;37.35;17.76;100443.22;6116963;23;20040;-84
2021/06/17 09:09:04;;;;;;;1.17;1.17;;;;;;;38.24;17.80;100441.97;6146570;23;20033;-83
2021/06/17 09:11:31;;;;;;;1.00;1.00;;;;;;;38.10;18.04;100447.69;6140298;23;20025;-86
2021/06/17 09:14:19;;;;;;;1.08;1.08;;;;;;;38.55;18.12;100447.78;6090356;23;20456;-84
2021/06/17 09:17:03;;;;;;;1.08;1.08;;;;;;;38.13;17.58;100435.72;6142773;22;20031;-84
2021/06/17 09:19:40;;;;;;;1.00;1.00;;;;;;;38.45;17.08;100448.03;6161877;23;20021;-82
2021/06/17 09:22:56;;;;;;;1.10;1.10;;;;;;;38.55;17.03;100439.31;6150839;23;20101;-82
2021/06/17 09:25:49;;;;;;;1.00;1.00;;;;;;;38.06;17.97;100440.97;6110265;23;20410;-82
2021/06/17 09:28:18;;;;;;;1.00;1.00;;;;;;;38.66;16.73;100436.25;6109193;23;20056;-83
2021/06/17 09:30:47;;;;;;;1.05;1.05;;;;;;;37.80;17.75;100443.47;6132606;23;20017;-83
2021/06/17 09:33:15;;;;;;;1.10;1.10;;;;;;;38.29;16.83;100438.22;6133379;23;20021;-83
2021/06/17 09:35:56;;;;;;;1.00;1.00;;;;;;;38.54;17.50;100448.97;6135218;23;20017;-83
2021/06/17 09:38:27;;;;;;;0.90;0.90;;;;;;;38.03;18.16;100441.63;6130206;23;20029;-81
2021/06/17 09:40:56;;;;;;;1.00;1.00;;;;;;;37.14;17.65;100439.94;6155107;23;20017;-82
2021/06/17 09:43:21;;;;;;;0.90;0.90;;;;;;;37.84;16.92;100444.50;6154234;23;20052;-81
2021/06/17 09:46:05;;;;;;;1.00;1.00;;;;;;;38.18;17.15;100436.78;6155668;23;20409;-82
2021/06/17 09:48:42;;;;;;;0.90;0.90;;;;;;;38.53;16.71;100449.25;6108005;23;20036;-82
2021/06/17 09:51:24;;;;;;;0.90;0.90;;;;;;;38.35;16.77;100436.97;6111681;23;20077;-82
2021/06/17 09:53:52;;;;;;;1.00;1.00;;;;;;;38.03;17.18;100435.97;6156612;23;20056;-83
2021/06/17 09:56:31;;;;;;;0.98;0.98;;;;;;;38.00;17.38;100439.44;6157160;23;20075;-83
2021/06/17 09:59:01;;;;;;;0.90;0.90;;;;;;;38.80;17.32;100437.06;6132528;23;20167;-83
2021/06/17 10:01:37;;;;;;;1.00;1.00;;;;;;;38.77;16.88;100438.50;6156816;23;20120;-84
2021/06/17 10:04:14;;;;;;;1.00;1.00;;;;;;;38.11;17.42;100425.91;6156955;23;20018;-84
2021/06/17 10:06:44;;;;;;;0.90;0.90;;;;;;;38.33;16.96;100428.78;6151869;23;20036;-84
2021/06/17 10:09:19;;;;;;;0.90;0.90;;;;;;;38.09;17.54;100425.38;6130752;23;20017;-83
2021/06/17 10:11:50;;;;;;;0.95;0.95;;;;;;;37.79;17.33;100432.50;6106093;23;20263;-83
2021/06/17 10:14:16;;;;;;;0.90;0.90;;;;;;;38.20;17.07;100432.47;6133273;23;20022;-82
2021/06/17 10:16:43;;;;;;;0.90;0.90;;;;;;;38.39;17.04;100432.34;6155898;23;20069;-83
2021/06/17 10:19:10;;;;;;;0.90;0.90;;;;;;;38.89;16.33;100435.13;6133116;23;20013;-83
2021/06/17 10:21:37;;;;;;;0.80;0.80;;;;;;;38.82;16.70;100429.06;6160575;23;20028;-84
2021/06/17 10:24:29;;;;;;;0.80;0.80;;;;;;;38.96;16.75;100423.34;6133381;23;20026;-85
2021/06/17 10:27:05;;;;;;;0.90;0.90;;;;;;;38.79;16.94;100429.69;6159855;23;20087;-82
2021/06/17 10:29:35;;;;;;;0.90;0.90;;;;;;;38.41;16.72;100423.56;6157625;23;20104;-82
2021/06/17 10:32:02;;;;;;;0.90;0.90;;;;;;;38.35;17.06;100431.31;6131587;23;20017;-82
2021/06/17 10:34:31;;;;;;;0.90;0.90;;;;;;;38.11;17.26;100421.09;6089268;23;20029;-85
2021/06/17 10:37:07;;;;;;;0.98;0.98;;;;;;;38.17;17.33;100437.91;6158421;23;20290;-83
2021/06/17 10:39:42;;;;;;;0.80;0.80;;;;;;;38.00;17.72;100430.94;6129755;23;20595;-82
2021/06/17 10:43:00;;;;;;;0.90;0.90;;;;;;;38.46;17.93;100426.25;6129095;23;20009;-83
2021/06/17 10:45:27;;;;;;;0.90;0.90;;;;;;;38.11;17.79;100431.56;6162501;22;20029;-86
2021/06/17 10:47:59;;;;;;;0.90;0.90;;;;;;;37.77;18.31;100417.84;6120565;23;20030;-86
2021/06/17 10:50:33;;;;;;;1.00;1.00;;;;;;;37.72;17.91;100417.97;6084431;23;20018;-83
2021/06/17 10:53:18;;;;;;;0.93;0.93;;;;;;;37.63;17.45;100421.53;6059783;23;20018;-83
2021/06/17 10:56:34;;;;;;;0.90;0.90;;;;;;;38.29;17.83;100422.09;6135649;23;20202;-84
2021/06/17 10:59:03;;;;;;;0.90;0.90;;;;;;;37.62;17.83;100419.84;6137026;23;20044;-84
2021/06/17 11:04:31;;;;;;;1.00;1.00;;;;;;;37.76;18.47;100419.00;6169814;23;20032;-85
2021/06/17 11:07:16;;;;;;;1.00;1.00;;;;;;;37.76;18.67;100419.84;6164607;23;20032;-85
2021/06/17 11:09:52;;;;;;;0.90;0.90;;;;;;;38.01;18.06;100420.50;6119348;23;20025;-83
2021/06/17 11:12:29;;;;;;;1.00;1.00;;;;;;;37.18;18.18;100421.22;6143063;22;20010;31
2021/06/17 11:14:58;;;;;;;1.00;1.00;;;;;;;36.87;18.01;100414.47;6114379;23;20033;-86
2021/06/17 11:17:33;;;;;;;0.90;0.90;;;;;;;36.88;18.43;100416.97;6128692;23;20150;-87
2021/06/17 11:23:02;;;;;;;0.90;0.90;;;;;;;36.82;18.77;100420.16;6164542;23;20029;-83
2021/06/17 11:25:30;;;;;;;1.00;1.00;;;;;;;36.41;19.15;100417.97;6164600;23;20065;-84
2021/06/17 11:28:14;;;;;;;1.00;1.00;;;;;;;36.86;19.13;100429.66;6138574;23;20400;-83
2021/06/17 11:30:45;;;;;;;0.90;0.90;;;;;;;37.06;18.50;100422.88;6141903;23;20013;-86
2021/06/17 11:33:23;;;;;;;1.00;1.00;;;;;;;36.82;18.62;100422.97;6140107;23;20051;-85
2021/06/17 11:35:54;;;;;;;;;;;;;;;36.92;18.64;100418.00;6144451;23;20097;-84
2021/06/17 11:38:29;;;;;;;1.05;1.05;;;;;;;36.84;18.46;100415.91;6165141;23;20292;-85
2021/06/17 11:40:56;;;;;;;1.00;1.00;;;;;;;36.78;18.89;100410.66;6117222;23;20124;-84
2021/06/17 11:43:27;;;;;;;0.90;0.90;;;;;;;37.27;18.79;100417.72;6145344;23;20047;-83
2021/06/17 11:45:57;;;;;;;1.00;1.00;;;;;;;37.24;18.49;100419.16;6162811;23;20034;-86
2021/06/17 11:48:47;;;;;;;0.90;0.90;;;;;;;36.71;18.61;100413.88;6170049;23;20040;-84